Accueil
METAR-TAF:

METAR-TAF

Aéroports :

Aéroport Sandro-Pertini de Turin Caselle

Turin, Italie

latitude: 45-13N, longitude: 007-39E, altitude: 301 m

Observation

Le bulletin a été fait il y a 36 minutes, à 09:20 UTC
Vent 11 kt de nord-est
Température 8°C
Humidité 76%
Pression 1033 hPa
Visibilité: 4500 m
Nuages épars à une hauteur de 2000 ft
brume

METAR: LIMF 230920Z 04011KT 4500 BR SCT020 08/04 Q1033

Heure: 10:56 (09:56 UTC)

Prévision

Le bulletin a été fait il y a 1 heure et 54 minutes, à 08:02 UTC
Prévision valable du 23 à 08 UTC au 24 à 06 UTC
Vent 12 kt de est
Visibilité: 3500 m
Nuages fragmentés à une hauteur de 1000 ft
brume
Evoluant progressivement
du 23 à 13 UTC au 23 à 15 UTC
Vent 5 kt de direction variable
Visibilité: 7000 m
Nuages épars à une hauteur de 2500 ft

TAF: LIMF 230802Z 2308/2406 08012KT 3500 BR BKN010 BECMG 2313/2315 VRB05KT 7000 SCT025

Observations et prévisions météorologiques de plus de 4000 aéroports (messages METAR et TAF).

Les stations disponibles sont représentées par des disques jaunes et rouges sur la carte.

Passer la souris dessus pour voir le nom de la station.

Cliquer dessus pour voir les observations et prévisions météorologiques.

Pour changer de carte: cliquez sur les boutons verts avec une croix noire pour zoomer, sur le bouton vert avec un tiret pour effectuer un zoom arrière, ou sur les flèches vertes pour les cartes adjacentes.


METAR-TAF: